sensor_id;sensor_type;location;lat;lon;timestamp;pressure;altitude;pressure_sealevel;temperature;humidity
62103;BME280;48077;48.104;11.702;2022-11-20T00:02:09;94921.47;;;3.32;100.00
62103;BME280;48077;48.104;11.702;2022-11-20T00:04:32;94916.00;;;3.34;100.00
62103;BME280;48077;48.104;11.702;2022-11-20T00:06:55;94927.94;;;3.36;100.00
62103;BME280;48077;48.104;11.702;2022-11-20T00:09:19;94922.06;;;3.34;100.00
62103;BME280;48077;48.104;11.702;2022-11-20T00:11:42;94928.34;;;3.33;100.00
62103;BME280;48077;48.104;11.702;2022-11-20T00:14:05;94923.28;;;3.32;100.00
62103;BME280;48077;48.104;11.702;2022-11-20T00:16:31;94919.44;;;3.34;100.00
62103;BME280;48077;48.104;11.702;2022-11-20T00:18:55;94933.84;;;3.38;100.00
62103;BME280;48077;48.104;11.702;2022-11-20T00:21:23;94930.41;;;3.38;100.00
62103;BME280;48077;48.104;11.702;2022-11-20T00:23:47;94929.19;;;3.40;100.00
62103;BME280;48077;48.104;11.702;2022-11-20T00:26:13;94927.16;;;3.36;100.00
62103;BME280;48077;48.104;11.702;2022-11-20T00:28:37;94929.38;;;3.39;100.00
62103;BME280;48077;48.104;11.702;2022-11-20T00:31:05;94934.03;;;3.43;100.00
62103;BME280;48077;48.104;11.702;2022-11-20T00:33:29;94931.41;;;3.43;100.00
62103;BME280;48077;48.104;11.702;2022-11-20T00:35:53;94933.22;;;3.43;100.00
62103;BME280;48077;48.104;11.702;2022-11-20T00:38:16;94932.22;;;3.44;100.00
62103;BME280;48077;48.104;11.702;2022-11-20T00:40:39;94928.38;;;3.40;100.00
62103;BME280;48077;48.104;11.702;2022-11-20T00:43:03;94948.44;;;3.48;100.00
62103;BME280;48077;48.104;11.702;2022-11-20T00:45:26;94928.56;;;3.38;100.00
62103;BME280;48077;48.104;11.702;2022-11-20T00:47:49;94939.53;;;3.42;100.00
62103;BME280;48077;48.104;11.702;2022-11-20T00:50:13;94943.78;;;3.43;100.00
62103;BME280;48077;48.104;11.702;2022-11-20T00:52:36;94941.13;;;3.43;100.00
62103;BME280;48077;48.104;11.702;2022-11-20T00:54:59;94943.59;;;3.44;100.00
62103;BME280;48077;48.104;11.702;2022-11-20T00:57:23;94950.25;;;3.47;100.00
62103;BME280;48077;48.104;11.702;2022-11-20T00:59:46;94950.88;;;3.49;100.00
62103;BME280;48077;48.104;11.702;2022-11-20T01:02:09;94954.31;;;3.50;100.00
62103;BME280;48077;48.104;11.702;2022-11-20T01:04:33;94958.78;;;3.49;100.00
62103;BME280;48077;48.104;11.702;2022-11-20T01:06:56;94946.22;;;3.44;100.00
62103;BME280;48077;48.104;11.702;2022-11-20T01:09:19;94961.63;;;3.48;100.00
62103;BME280;48077;48.104;11.702;2022-11-20T01:11:44;94958.78;;;3.49;100.00
62103;BME280;48077;48.104;11.702;2022-11-20T01:14:11;94964.25;;;3.48;100.00
62103;BME280;48077;48.104;11.702;2022-11-20T01:16:38;94969.75;;;3.46;100.00
62103;BME280;48077;48.104;11.702;2022-11-20T01:19:05;94966.88;;;3.41;100.00
62103;BME280;48077;48.104;11.702;2022-11-20T01:21:32;94966.69;;;3.42;100.00
62103;BME280;48077;48.104;11.702;2022-11-20T01:23:56;94972.59;;;3.44;100.00
62103;BME280;48077;48.104;11.702;2022-11-20T01:26:24;94966.50;;;3.44;100.00
62103;BME280;48077;48.104;11.702;2022-11-20T01:28:48;94964.66;;;3.44;100.00
62103;BME280;48077;48.104;11.702;2022-11-20T01:31:26;94966.28;;;3.45;100.00
62103;BME280;48077;48.104;11.702;2022-11-20T01:33:52;94948.63;;;3.39;100.00
62103;BME280;48077;48.104;11.702;2022-11-20T01:36:18;94970.75;;;3.45;100.00
62103;BME280;48077;48.104;11.702;2022-11-20T01:38:42;94960.19;;;3.38;100.00
62103;BME280;48077;48.104;11.702;2022-11-20T01:41:06;94966.28;;;3.45;100.00
62103;BME280;48077;48.104;11.702;2022-11-20T01:43:30;94970.56;;;3.47;100.00
62103;BME280;48077;48.104;11.702;2022-11-20T01:46:14;94962.84;;;3.45;100.00
62103;BME280;48077;48.104;11.702;2022-11-20T01:51:07;94964.25;;;3.48;100.00
62103;BME280;48077;48.104;11.702;2022-11-20T01:53:35;94962.66;;;3.47;100.00
62103;BME280;48077;48.104;11.702;2022-11-20T01:56:01;94972.38;;;3.46;100.00
62103;BME280;48077;48.104;11.702;2022-11-20T01:58:29;94960.81;;;3.40;100.00
62103;BME280;48077;48.104;11.702;2022-11-20T02:00:53;94973.00;;;3.48;100.00
62103;BME280;48077;48.104;11.702;2022-11-20T02:03:18;94964.66;;;3.44;100.00
62103;BME280;48077;48.104;11.702;2022-11-20T02:06:10;94966.69;;;3.49;100.00
62103;BME280;48077;48.104;11.702;2022-11-20T02:08:36;94961.44;;;3.49;100.00
62103;BME280;48077;48.104;11.702;2022-11-20T02:11:00;94956.16;;;3.42;100.00
62103;BME280;48077;48.104;11.702;2022-11-20T02:13:24;94965.28;;;3.47;100.00
62103;BME280;48077;48.104;11.702;2022-11-20T02:16:12;94961.41;;;3.42;100.00
62103;BME280;48077;48.104;11.702;2022-11-20T02:18:36;94968.53;;;3.49;100.00
62103;BME280;48077;48.104;11.702;2022-11-20T02:21:06;94962.22;;;3.43;100.00
62103;BME280;48077;48.104;11.702;2022-11-20T02:23:36;94953.72;;;3.41;100.00
62103;BME280;48077;48.104;11.702;2022-11-20T02:26:02;94951.88;;;3.41;100.00
62103;BME280;48077;48.104;11.702;2022-11-20T02:28:28;94961.41;;;3.42;100.00
62103;BME280;48077;48.104;11.702;2022-11-20T02:30:51;94952.69;;;3.35;100.00
62103;BME280;48077;48.104;11.702;2022-11-20T02:33:14;94963.03;;;3.43;100.00
62103;BME280;48077;48.104;11.702;2022-11-20T02:35:47;94970.38;;;3.48;100.00
62103;BME280;48077;48.104;11.702;2022-11-20T02:38:10;94968.72;;;3.47;100.00
62103;BME280;48077;48.104;11.702;2022-11-20T02:40:34;94976.03;;;3.52;100.00
62103;BME280;48077;48.104;11.702;2022-11-20T02:42:57;94979.50;;;3.52;100.00
62103;BME280;48077;48.104;11.702;2022-11-20T02:45:21;94970.97;;;3.50;100.00
62103;BME280;48077;48.104;11.702;2022-11-20T02:47:45;94971.34;;;3.47;100.00
62103;BME280;48077;48.104;11.702;2022-11-20T02:50:09;94969.13;;;3.51;100.00
62103;BME280;48077;48.104;11.702;2022-11-20T02:52:32;94960.00;;;3.47;100.00
62103;BME280;48077;48.104;11.702;2022-11-20T02:54:56;94971.78;;;3.51;100.00
62103;BME280;48077;48.104;11.702;2022-11-20T02:57:19;94971.59;;;3.52;100.00
62103;BME280;48077;48.104;11.702;2022-11-20T02:59:43;94961.00;;;3.45;100.00
62103;BME280;48077;48.104;11.702;2022-11-20T03:02:06;94967.31;;;3.51;100.00
62103;BME280;48077;48.104;11.702;2022-11-20T03:04:30;94971.59;;;3.52;100.00
62103;BME280;48077;48.104;11.702;2022-11-20T03:06:53;94958.38;;;3.45;100.00
62103;BME280;48077;48.104;11.702;2022-11-20T03:09:16;94969.75;;;3.53;100.00
62103;BME280;48077;48.104;11.702;2022-11-20T03:11:40;94950.47;;;3.39;100.00
62103;BME280;48077;48.104;11.702;2022-11-20T03:14:04;94932.81;;;3.33;100.00
62103;BME280;48077;48.104;11.702;2022-11-20T03:16:28;94961.44;;;3.49;100.00
62103;BME280;48077;48.104;11.702;2022-11-20T03:18:52;94964.88;;;3.50;100.00
62103;BME280;48077;48.104;11.702;2022-11-20T03:21:15;94953.31;;;3.44;100.00
62103;BME280;48077;48.104;11.702;2022-11-20T03:23:40;94952.72;;;3.42;100.00
62103;BME280;48077;48.104;11.702;2022-11-20T03:26:35;94963.06;;;3.50;100.00
62103;BME280;48077;48.104;11.702;2022-11-20T03:29:01;94960.63;;;3.49;100.00
62103;BME280;48077;48.104;11.702;2022-11-20T03:31:27;94963.66;;;3.45;100.00
62103;BME280;48077;48.104;11.702;2022-11-20T03:33:50;94965.09;;;3.48;100.00
62103;BME280;48077;48.104;11.702;2022-11-20T03:36:16;94947.41;;;3.35;100.00
62103;BME280;48077;48.104;11.702;2022-11-20T03:38:40;94967.50;;;3.50;100.00
62103;BME280;48077;48.104;11.702;2022-11-20T03:41:09;94952.72;;;3.42;100.00
62103;BME280;48077;48.104;11.702;2022-11-20T03:43:33;94969.94;;;3.51;100.00
62103;BME280;48077;48.104;11.702;2022-11-20T03:45:56;94940.53;;;3.34;100.00
62103;BME280;48077;48.104;11.702;2022-11-20T03:48:20;94962.44;;;3.48;100.00
62103;BME280;48077;48.104;11.702;2022-11-20T03:50:43;94958.19;;;3.54;100.00
62103;BME280;48077;48.104;11.702;2022-11-20T03:53:07;94942.56;;;3.45;100.00
62103;BME280;48077;48.104;11.702;2022-11-20T03:55:30;94953.75;;;3.54;100.00
62103;BME280;48077;48.104;11.702;2022-11-20T03:57:53;94950.88;;;3.49;100.00
62103;BME280;48077;48.104;11.702;2022-11-20T04:00:17;94964.28;;;3.54;100.00
62103;BME280;48077;48.104;11.702;2022-11-20T04:02:40;94965.28;;;3.53;100.00
62103;BME280;48077;48.104;11.702;2022-11-20T04:05:03;94957.56;;;3.45;100.00
62103;BME280;48077;48.104;11.702;2022-11-20T04:07:27;94973.59;;;3.50;100.00
62103;BME280;48077;48.104;11.702;2022-11-20T04:09:50;94973.00;;;3.48;100.00
62103;BME280;48077;48.104;11.702;2022-11-20T04:12:14;94967.13;;;3.46;100.00
62103;BME280;48077;48.104;11.702;2022-11-20T04:14:37;94961.41;;;3.36;100.00
62103;BME280;48077;48.104;11.702;2022-11-20T04:17:01;94973.38;;;3.38;100.00
62103;BME280;48077;48.104;11.702;2022-11-20T04:19:25;94975.03;;;3.46;100.00
62103;BME280;48077;48.104;11.702;2022-11-20T04:21:48;94979.47;;;3.45;100.00
62103;BME280;48077;48.104;11.702;2022-11-20T04:24:11;94961.19;;;3.37;100.00
62103;BME280;48077;48.104;11.702;2022-11-20T04:26:35;94971.16;;;3.42;100.00
62103;BME280;48077;48.104;11.702;2022-11-20T04:28:59;94966.09;;;3.40;100.00
62103;BME280;48077;48.104;11.702;2022-11-20T04:31:27;94968.09;;;3.38;100.00
62103;BME280;48077;48.104;11.702;2022-11-20T04:33:51;94975.22;;;3.44;100.00
62103;BME280;48077;48.104;11.702;2022-11-20T04:36:20;94979.47;;;3.45;100.00
62103;BME280;48077;48.104;11.702;2022-11-20T04:38:43;94962.84;;;3.38;100.00
62103;BME280;48077;48.104;11.702;2022-11-20T04:41:12;94964.66;;;3.38;100.00
62103;BME280;48077;48.104;11.702;2022-11-20T04:43:37;94955.94;;;3.37;100.00
62103;BME280;48077;48.104;11.702;2022-11-20T04:46:01;94953.50;;;3.36;100.00
62103;BME280;48077;48.104;11.702;2022-11-20T04:48:25;94965.06;;;3.41;100.00
62103;BME280;48077;48.104;11.702;2022-11-20T04:50:49;94961.81;;;3.39;100.00
62103;BME280;48077;48.104;11.702;2022-11-20T04:53:13;94973.56;;;3.43;100.00
62103;BME280;48077;48.104;11.702;2022-11-20T04:55:36;94973.56;;;3.43;100.00
62103;BME280;48077;48.104;11.702;2022-11-20T04:58:00;94964.25;;;3.41;100.00
62103;BME280;48077;48.104;11.702;2022-11-20T05:00:23;94960.81;;;3.34;100.00
62103;BME280;48077;48.104;11.702;2022-11-20T05:02:46;94953.91;;;3.33;100.00
62103;BME280;48077;48.104;11.702;2022-11-20T05:05:10;94974.59;;;3.42;100.00
62103;BME280;48077;48.104;11.702;2022-11-20T05:07:33;94971.97;;;3.42;100.00
62103;BME280;48077;48.104;11.702;2022-11-20T05:09:56;94975.59;;;3.41;100.00
62103;BME280;48077;48.104;11.702;2022-11-20T05:12:20;94980.88;;;3.41;100.00
62103;BME280;48077;48.104;11.702;2022-11-20T05:14:43;94962.84;;;3.32;100.00
62103;BME280;48077;48.104;11.702;2022-11-20T05:17:10;94980.88;;;3.41;100.00
62103;BME280;48077;48.104;11.702;2022-11-20T05:19:33;94979.25;;;3.40;100.00
62103;BME280;48077;48.104;11.702;2022-11-20T05:21:56;94958.97;;;3.34;100.00
62103;BME280;48077;48.104;11.702;2022-11-20T05:24:20;94965.47;;;3.38;100.00
62103;BME280;48077;48.104;11.702;2022-11-20T05:26:43;94965.84;;;3.35;100.00
62103;BME280;48077;48.104;11.702;2022-11-20T05:29:10;94975.59;;;3.41;100.00
62103;BME280;48077;48.104;11.702;2022-11-20T05:31:33;94976.44;;;3.42;100.00
62103;BME280;48077;48.104;11.702;2022-11-20T05:33:57;94984.34;;;3.42;100.00
62103;BME280;48077;48.104;11.702;2022-11-20T05:36:20;94988.78;;;3.41;100.00
62103;BME280;48077;48.104;11.702;2022-11-20T05:38:44;94983.31;;;3.43;100.00
62103;BME280;48077;48.104;11.702;2022-11-20T05:41:12;94982.31;;;3.44;100.00
62103;BME280;48077;48.104;11.702;2022-11-20T05:43:38;94986.75;;;3.43;100.00
62103;BME280;48077;48.104;11.702;2022-11-20T05:46:02;94976.81;;;3.39;100.00
62103;BME280;48077;48.104;11.702;2022-11-20T05:48:26;94987.38;;;3.45;100.00
62103;BME280;48077;48.104;11.702;2022-11-20T05:50:50;94995.50;;;3.44;100.00
62103;BME280;48077;48.104;11.702;2022-11-20T05:53:13;94991.22;;;3.43;100.00
62103;BME280;48077;48.104;11.702;2022-11-20T05:55:36;94975.59;;;3.35;100.00
62103;BME280;48077;48.104;11.702;2022-11-20T05:58:00;94981.47;;;3.37;100.00
62103;BME280;48077;48.104;11.702;2022-11-20T06:00:23;94991.41;;;3.41;100.00
62103;BME280;48077;48.104;11.702;2022-11-20T06:02:46;94974.19;;;3.32;100.00
62103;BME280;48077;48.104;11.702;2022-11-20T06:05:10;94989.63;;;3.42;100.00
62103;BME280;48077;48.104;11.702;2022-11-20T06:07:33;94983.50;;;3.41;100.00
62103;BME280;48077;48.104;11.702;2022-11-20T06:09:57;94976.22;;;3.37;100.00
62103;BME280;48077;48.104;11.702;2022-11-20T06:12:20;94993.25;;;3.41;100.00
62103;BME280;48077;48.104;11.702;2022-11-20T06:14:43;94982.69;;;3.34;100.00
62103;BME280;48077;48.104;11.702;2022-11-20T06:17:07;94988.78;;;3.35;100.00
62103;BME280;48077;48.104;11.702;2022-11-20T06:19:30;94979.03;;;3.29;100.00
62103;BME280;48077;48.104;11.702;2022-11-20T06:21:53;94991.59;;;3.33;100.00
62103;BME280;48077;48.104;11.702;2022-11-20T06:24:17;94987.75;;;3.29;100.00
62103;BME280;48077;48.104;11.702;2022-11-20T06:26:41;94993.84;;;3.30;100.00
62103;BME280;48077;48.104;11.702;2022-11-20T06:29:04;94976.81;;;3.19;100.00
62103;BME280;48077;48.104;11.702;2022-11-20T06:31:27;94968.66;;;3.14;100.00
62103;BME280;48077;48.104;11.702;2022-11-20T06:33:52;94987.72;;;3.16;100.00
62103;BME280;48077;48.104;11.702;2022-11-20T06:36:17;94982.81;;;3.06;100.00
62103;BME280;48077;48.104;11.702;2022-11-20T06:38:41;94982.63;;;3.08;100.00
62103;BME280;48077;48.104;11.702;2022-11-20T06:41:05;94983.22;;;2.96;100.00
62103;BME280;48077;48.104;11.702;2022-11-20T06:43:29;95000.03;;;3.02;100.00
62103;BME280;48077;48.104;11.702;2022-11-20T06:45:53;95003.47;;;2.96;100.00
62103;BME280;48077;48.104;11.702;2022-11-20T06:48:17;94995.78;;;2.94;100.00
62103;BME280;48077;48.104;11.702;2022-11-20T06:50:40;95003.88;;;2.99;100.00
62103;BME280;48077;48.104;11.702;2022-11-20T06:53:04;95000.22;;;2.94;100.00
62103;BME280;48077;48.104;11.702;2022-11-20T06:55:28;95008.16;;;3.00;100.00
62103;BME280;48077;48.104;11.702;2022-11-20T06:57:51;95009.97;;;3.00;100.00
62103;BME280;48077;48.104;11.702;2022-11-20T07:00:15;95006.09;;;2.96;100.00
62103;BME280;48077;48.104;11.702;2022-11-20T07:02:38;95019.31;;;3.02;100.00
62103;BME280;48077;48.104;11.702;2022-11-20T07:05:02;95003.88;;;2.93;99.47
62103;BME280;48077;48.104;11.702;2022-11-20T07:07:25;95012.41;;;3.01;99.83
62103;BME280;48077;48.104;11.702;2022-11-20T07:09:48;95033.94;;;3.12;100.00
62103;BME280;48077;48.104;11.702;2022-11-20T07:12:12;95018.53;;;3.09;100.00
62103;BME280;48077;48.104;11.702;2022-11-20T07:14:35;95025.03;;;3.19;100.00
62103;BME280;48077;48.104;11.702;2022-11-20T07:16:59;95018.97;;;3.19;99.79
62103;BME280;48077;48.104;11.702;2022-11-20T07:19:22;95028.13;;;3.30;99.98
62103;BME280;48077;48.104;11.702;2022-11-20T07:21:45;95014.31;;;3.28;99.42
62103;BME280;48077;48.104;11.702;2022-11-20T07:24:09;95026.72;;;3.34;100.00
62103;BME280;48077;48.104;11.702;2022-11-20T07:26:32;95028.34;;;3.41;98.89
62103;BME280;48077;48.104;11.702;2022-11-20T07:28:55;95021.25;;;3.42;98.31
62103;BME280;48077;48.104;11.702;2022-11-20T07:31:19;95029.97;;;3.49;98.05
62103;BME280;48077;48.104;11.702;2022-11-20T07:33:42;95037.28;;;3.54;97.69
62103;BME280;48077;48.104;11.702;2022-11-20T07:36:05;95040.75;;;3.61;97.99
62103;BME280;48077;48.104;11.702;2022-11-20T07:38:29;95026.34;;;3.57;98.22
62103;BME280;48077;48.104;11.702;2022-11-20T07:40:56;95037.72;;;3.64;98.08
62103;BME280;48077;48.104;11.702;2022-11-20T07:43:20;95030.81;;;3.63;98.07
62103;BME280;48077;48.104;11.702;2022-11-20T07:45:43;95022.06;;;3.56;97.77
62103;BME280;48077;48.104;11.702;2022-11-20T07:48:07;95031.22;;;3.67;98.00
62103;BME280;48077;48.104;11.702;2022-11-20T07:50:30;95022.06;;;3.62;97.64
62103;BME280;48077;48.104;11.702;2022-11-20T07:53:01;95025.97;;;3.73;96.92
62103;BME280;48077;48.104;11.702;2022-11-20T07:55:24;95028.38;;;3.75;96.59
62103;BME280;48077;48.104;11.702;2022-11-20T07:57:54;95011.75;;;3.68;96.13
62103;BME280;48077;48.104;11.702;2022-11-20T08:00:18;95018.88;;;3.74;95.79
62103;BME280;48077;48.104;11.702;2022-11-20T08:02:41;95028.41;;;3.81;95.40
62103;BME280;48077;48.104;11.702;2022-11-20T08:05:05;95036.09;;;3.83;94.63
62103;BME280;48077;48.104;11.702;2022-11-20T08:07:29;95027.81;;;3.79;94.14
62103;BME280;48077;48.104;11.702;2022-11-20T08:09:52;95028.81;;;3.85;94.02
62103;BME280;48077;48.104;11.702;2022-11-20T08:12:20;95036.94;;;3.90;94.39
62103;BME280;48077;48.104;11.702;2022-11-20T08:15:03;95038.56;;;3.91;93.88
62103;BME280;48077;48.104;11.702;2022-11-20T08:17:26;95034.13;;;3.92;92.75
62103;BME280;48077;48.104;11.702;2022-11-20T08:19:50;95029.44;;;3.94;92.43
62103;BME280;48077;48.104;11.702;2022-11-20T08:22:13;95033.09;;;3.93;91.42
62103;BME280;48077;48.104;11.702;2022-11-20T08:24:36;95034.72;;;4.00;91.95
62103;BME280;48077;48.104;11.702;2022-11-20T08:27:00;95036.31;;;4.01;91.88
62103;BME280;48077;48.104;11.702;2022-11-20T08:29:23;95045.88;;;4.02;92.02
62103;BME280;48077;48.104;11.702;2022-11-20T08:31:47;95039.19;;;4.07;91.53
62103;BME280;48077;48.104;11.702;2022-11-20T08:34:10;95036.94;;;4.03;90.76
62103;BME280;48077;48.104;11.702;2022-11-20T08:36:33;95045.69;;;4.11;90.19
62103;BME280;48077;48.104;11.702;2022-11-20T08:38:58;95032.06;;;4.07;90.58
62103;BME280;48077;48.104;11.702;2022-11-20T08:41:22;95042.81;;;4.12;90.31
62103;BME280;48077;48.104;11.702;2022-11-20T08:46:16;95046.47;;;4.24;90.00
62103;BME280;48077;48.104;11.702;2022-11-20T08:48:40;95042.59;;;4.27;87.51
62103;BME280;48077;48.104;11.702;2022-11-20T08:51:03;95043.81;;;4.31;87.45
62103;BME280;48077;48.104;11.702;2022-11-20T08:53:27;95041.19;;;4.38;87.66
62103;BME280;48077;48.104;11.702;2022-11-20T08:55:50;95041.38;;;4.43;88.02
62103;BME280;48077;48.104;11.702;2022-11-20T08:58:14;95041.59;;;4.48;88.77
62103;BME280;48077;48.104;11.702;2022-11-20T09:00:37;95029.59;;;4.45;88.15
62103;BME280;48077;48.104;11.702;2022-11-20T09:03:01;95030.19;;;4.47;87.26
62103;BME280;48077;48.104;11.702;2022-11-20T09:05:24;95033.25;;;4.51;86.98
62103;BME280;48077;48.104;11.702;2022-11-20T09:07:48;95035.25;;;4.56;87.27
62103;BME280;48077;48.104;11.702;2022-11-20T09:10:11;95022.47;;;4.53;87.13
62103;BME280;48077;48.104;11.702;2022-11-20T09:12:34;95038.31;;;4.59;86.28
62103;BME280;48077;48.104;11.702;2022-11-20T09:14:58;95043.78;;;4.64;86.48
62103;BME280;48077;48.104;11.702;2022-11-20T09:17:21;95026.94;;;4.59;86.20
62103;BME280;48077;48.104;11.702;2022-11-20T09:19:44;95030.97;;;4.68;86.35
62103;BME280;48077;48.104;11.702;2022-11-20T09:22:08;95039.31;;;4.72;87.61
62103;BME280;48077;48.104;11.702;2022-11-20T09:24:31;95025.09;;;4.66;84.92
62103;BME280;48077;48.104;11.702;2022-11-20T09:26:55;95031.19;;;4.66;85.07
62103;BME280;48077;48.104;11.702;2022-11-20T09:29:18;95020.22;;;4.63;82.77
62103;BME280;48077;48.104;11.702;2022-11-20T09:31:41;95028.53;;;4.73;83.64
62103;BME280;48077;48.104;11.702;2022-11-20T09:34:05;95018.56;;;4.69;83.84
62103;BME280;48077;48.104;11.702;2022-11-20T09:36:28;95029.94;;;4.76;83.96
62103;BME280;48077;48.104;11.702;2022-11-20T09:38:52;95019.78;;;4.73;81.06
62103;BME280;48077;48.104;11.702;2022-11-20T09:43:58;95030.31;;;4.93;81.99
62103;BME280;48077;48.104;11.702;2022-11-20T09:46:40;95017.53;;;4.90;81.34
62103;BME280;48077;48.104;11.702;2022-11-20T09:49:25;95019.28;;;5.02;80.73
62103;BME280;48077;48.104;11.702;2022-11-20T09:52:01;95007.50;;;5.05;81.07
62103;BME280;48077;48.104;11.702;2022-11-20T09:54:32;95023.28;;;5.18;79.55
62103;BME280;48077;48.104;11.702;2022-11-20T09:57:11;95018.38;;;5.22;80.21
62103;BME280;48077;48.104;11.702;2022-11-20T09:59:43;95013.28;;;5.27;80.02
62103;BME280;48077;48.104;11.702;2022-11-20T10:02:30;95016.09;;;5.32;79.80
62103;BME280;48077;48.104;11.702;2022-11-20T10:05:18;95004.09;;;5.36;79.93
62103;BME280;48077;48.104;11.702;2022-11-20T10:10:42;95003.84;;;5.44;78.73
62103;BME280;48077;48.104;11.702;2022-11-20T10:24:04;94997.59;;;5.96;75.61
62103;BME280;48077;48.104;11.702;2022-11-20T10:29:21;94999.13;;;6.10;72.93
62103;BME280;48077;48.104;11.702;2022-11-20T10:31:56;95005.00;;;6.12;73.25
62103;BME280;48077;48.104;11.702;2022-11-20T10:34:44;95009.50;;;6.12;74.02
62103;BME280;48077;48.104;11.702;2022-11-20T10:37:16;94999.94;;;6.11;74.01
62103;BME280;48077;48.104;11.702;2022-11-20T10:39:57;95000.56;;;6.06;73.68
62103;BME280;48077;48.104;11.702;2022-11-20T10:42:31;94998.53;;;6.08;73.05
62103;BME280;48077;48.104;11.702;2022-11-20T10:45:11;94996.44;;;6.17;73.44
62103;BME280;48077;48.104;11.702;2022-11-20T10:47:38;94999.16;;;6.28;73.36
62103;BME280;48077;48.104;11.702;2022-11-20T10:50:04;94997.28;;;6.36;73.36
62103;BME280;48077;48.104;11.702;2022-11-20T10:52:42;94989.47;;;6.41;73.96
62103;BME280;48077;48.104;11.702;2022-11-20T10:58:20;94972.03;;;6.52;71.75
62103;BME280;48077;48.104;11.702;2022-11-20T11:00:46;94972.22;;;6.57;72.06
62103;BME280;48077;48.104;11.702;2022-11-20T11:03:22;94976.63;;;6.63;68.09
62103;BME280;48077;48.104;11.702;2022-11-20T11:06:03;94971.09;;;6.64;69.49
62103;BME280;48077;48.104;11.702;2022-11-20T11:08:36;94963.69;;;6.55;67.53
62103;BME280;48077;48.104;11.702;2022-11-20T11:11:15;94970.00;;;6.54;67.79
62103;BME280;48077;48.104;11.702;2022-11-20T11:13:41;94973.59;;;6.41;67.37
62103;BME280;48077;48.104;11.702;2022-11-20T11:16:04;94961.81;;;6.37;69.03
62103;BME280;48077;48.104;11.702;2022-11-20T11:18:29;94965.72;;;6.34;68.36
62103;BME280;48077;48.104;11.702;2022-11-20T11:20:54;94973.22;;;6.37;69.31
62103;BME280;48077;48.104;11.702;2022-11-20T11:23:35;94966.91;;;6.38;69.74
62103;BME280;48077;48.104;11.702;2022-11-20T11:26:01;94975.84;;;6.37;69.83
62103;BME280;48077;48.104;11.702;2022-11-20T11:28:25;94972.09;;;6.26;71.54
62103;BME280;48077;48.104;11.702;2022-11-20T11:30:50;94968.25;;;6.22;72.21
62103;BME280;48077;48.104;11.702;2022-11-20T11:33:22;94970.25;;;6.27;72.08
62103;BME280;48077;48.104;11.702;2022-11-20T11:35:51;94971.66;;;6.30;71.87
62103;BME280;48077;48.104;11.702;2022-11-20T11:38:27;94955.31;;;6.33;72.44
62103;BME280;48077;48.104;11.702;2022-11-20T11:40:53;94950.63;;;6.35;72.44
62103;BME280;48077;48.104;11.702;2022-11-20T11:43:20;94952.78;;;6.44;72.10
62103;BME280;48077;48.104;11.702;2022-11-20T11:46:29;94945.78;;;6.50;70.85
62103;BME280;48077;48.104;11.702;2022-11-20T11:49:11;94940.50;;;6.50;70.95
62103;BME280;48077;48.104;11.702;2022-11-20T11:51:45;94952.41;;;6.59;70.89
62103;BME280;48077;48.104;11.702;2022-11-20T11:54:23;94951.44;;;6.54;68.75
62103;BME280;48077;48.104;11.702;2022-11-20T11:56:48;94932.75;;;6.48;69.27
62103;BME280;48077;48.104;11.702;2022-11-20T11:59:16;94951.44;;;6.54;68.44
62103;BME280;48077;48.104;11.702;2022-11-20T12:01:49;94941.00;;;6.59;68.22
62103;BME280;48077;48.104;11.702;2022-11-20T12:04:50;94947.78;;;6.73;68.16
62103;BME280;48077;48.104;11.702;2022-11-20T12:07:38;94947.59;;;6.86;68.48
62103;BME280;48077;48.104;11.702;2022-11-20T12:10:03;94932.66;;;6.92;68.81
62103;BME280;48077;48.104;11.702;2022-11-20T12:12:31;94934.41;;;6.98;68.81
62103;BME280;48077;48.104;11.702;2022-11-20T12:14:58;94936.97;;;7.05;67.88
62103;BME280;48077;48.104;11.702;2022-11-20T12:17:22;94925.88;;;6.96;67.27
62103;BME280;48077;48.104;11.702;2022-11-20T12:19:45;94922.94;;;6.86;68.34
62103;BME280;48077;48.104;11.702;2022-11-20T12:25:22;94949.31;;;6.62;68.78
62103;BME280;48077;48.104;11.702;2022-11-20T12:30:25;94957.06;;;6.20;75.98
62103;BME280;48077;48.104;11.702;2022-11-20T12:44:20;94953.75;;;5.50;83.95
62103;BME280;48077;48.104;11.702;2022-11-20T12:47:28;94954.59;;;5.43;84.11
62103;BME280;48077;48.104;11.702;2022-11-20T12:50:19;94960.72;;;5.37;84.74
62103;BME280;48077;48.104;11.702;2022-11-20T12:52:56;94958.53;;;5.34;85.75
62103;BME280;48077;48.104;11.702;2022-11-20T12:55:49;94938.06;;;5.23;85.52
62103;BME280;48077;48.104;11.702;2022-11-20T12:58:58;94947.59;;;5.24;87.31
62103;BME280;48077;48.104;11.702;2022-11-20T13:04:12;94936.47;;;5.15;88.59
62103;BME280;48077;48.104;11.702;2022-11-20T13:06:40;94952.50;;;5.20;89.08
62103;BME280;48077;48.104;11.702;2022-11-20T13:09:09;94950.50;;;5.16;88.22
62103;BME280;48077;48.104;11.702;2022-11-20T13:17:05;94940.16;;;5.07;87.38
62103;BME280;48077;48.104;11.702;2022-11-20T13:19:33;94938.16;;;5.03;87.24
62103;BME280;48077;48.104;11.702;2022-11-20T13:21:57;94942.00;;;5.07;87.62
62103;BME280;48077;48.104;11.702;2022-11-20T13:26:46;94940.38;;;5.06;87.54
62103;BME280;48077;48.104;11.702;2022-11-20T13:29:16;94935.94;;;5.00;87.65
62103;BME280;48077;48.104;11.702;2022-11-20T13:31:43;94942.66;;;5.02;87.98
62103;BME280;48077;48.104;11.702;2022-11-20T13:34:13;94942.06;;;4.94;88.77
62103;BME280;48077;48.104;11.702;2022-11-20T13:36:49;94935.31;;;4.98;88.92
62103;BME280;48077;48.104;11.702;2022-11-20T13:39:30;94922.41;;;4.83;91.10
62103;BME280;48077;48.104;11.702;2022-11-20T13:41:56;94929.53;;;4.82;91.46
62103;BME280;48077;48.104;11.702;2022-11-20T13:46:56;94916.59;;;4.68;91.73
62103;BME280;48077;48.104;11.702;2022-11-20T13:49:42;94918.00;;;4.63;92.38
62103;BME280;48077;48.104;11.702;2022-11-20T13:55:02;94925.13;;;4.63;93.55